Cincinnati, OH

3:18 PM EDT on May 28, 2015 (GMT -0400)
Newport Aquarium | | Change Station
CLOSE
Current Station
Personal Weather Station
Location: Newport, KY
Elevation: 499 ft
Nearby Weather Stations

Elev 499 ft 39.09 °N, 84.50 °W | Updated 4 minutes ago

Overcast
Overcast
87.4 °F
Feels Like 87 °F
N
1.0
Wind Variable Wind from ESE
Gusts 1.0 mph

Today
High -- | Low -- °F
--% Chance of Precip.
Yesterday
High -- | Low -- °F
Precip. -- in
6:15 AM 8:55 PM
Waxing Gibbous, 78% visible
Pressure 30.18 in
Visibility 10.0 miles
Clouds Mostly Cloudy 3800 ft
Mostly Cloudy 4700 ft
Heat Index 87 °F
Dew Point 61 °F
Humidity 41%
Rainfall 0.00 in
Snow Depth Not available.
UV 6 out of 12
Pollen 8.10 out of 12
Air Quality Not available.
Flu Activity Local Activity
METAR KLUK 281853Z 21007KT 10SM BKN038 BKN047 27/19 A3019 RMK AO2 SLP218 T02670194

More Conditions Fewer Conditions

Pressure 30.18 in
Visibility 10.0 miles
Clouds Mostly Cloudy 3800 ft
Mostly Cloudy 4700 ft
Heat Index 87 °F
Dew Point 61 °F
Humidity 41%
Rainfall 0.00 in
Snow Depth Not available.
UV 6 out of 12
Pollen 8.10 out of 12
Air Quality Not available.
Flu Activity Local Activity
METAR KLUK 281853Z 21007KT 10SM BKN038 BKN047 27/19 A3019 RMK AO2 SLP218 T02670194

More Conditions Fewer Conditions

10-Day Weather Forecast

Almanac

Astronomy

May. 28, 2015 Rise Set
Actual Time
Civil Twilight
Nautical Twilight
Astronomical Twilight
Moon
Length of Visible Light
Length of Day
Tomorrow will be .
, % of the Moon is Illuminated

Today's Extremes

State Highs State Lows

Community

WunderPhotos

Upload Photos

1,825,031 photos uploaded!

WunderBlogs® & News

Nearby

Air Quality

  Air Quality AQ Index Pollutant
Not available.

Snow Depth

Station Depth Elevation

Earthquake Activity

City Distance Mag. Time & Date
Minimum magnitude displayed is 2.5.

Coastal Water Temperatures

Place Temperature

Stations

Nearby Weather Stations

Station Location Temp. Windchill Dew Point Humidity Wind Precip. Elev Updated Type